Strona główna
METAR-TAF:

METAR-TAF

Lotnisko :

Port lotniczy Damaszek

Damaszek, Syria

Szerokość geograficzna: 33-25N, Długość geograficzna: 036-31E, wysokość: 608 m

Aktualna obserwacja pogody

Raport powstał 25 minut temu, godzina 23:00 UTC
Wiatr 16 kt od południowo-południowy zachód
Temperatura 19°C
Wilgotność 73%
Ciśnienie 1011 hPa
Widzialność 10 km lub więcej
Brak chmur poniżej 1500 m i brak chmur cumulonimbus

METAR: OSDI 232300Z 20016KT CAVOK 19/14 Q1011

czas: 02:25 (23:25 UTC)

Prognoza

Raport powstał 7 godziny i 25 minut temu, godzina 16:00 UTC
Prognoza ważna od 23 godzina 18 UTC do 24 godzina 24 UTC
Wiatr 15 kt od południowy zachód
Widzialność 10 km lub więcej
Brak chmur poniżej 1500 m i brak chmur cumulonimbus
Przejściowo
od 24 godzina 09 UTC do 24 godzina 18 UTC
Wiatr 15 kt od zachód w porywach dochodzący do 25 kt
Widzialność 10 km lub więcej
Mało chmury na wysokości 3000 ft

TAF: OSDI 231600Z 2318/2424 22015KT CAVOK TEMPO 2409/2418 28015G25KT 9999 FEW030

Obserwacja i prognoza pogody dla ponad 4000 lotnisk (raport METAR i TAF).

Dostępne stacje oznaczono żółtymi i czerwonymi punktami na mapie.

Najedź kursorem aby zobaczyć nazwę stacji.

Kliknij aby zobaczyć obserwacje i prognozy pogody.

Aby zmienić mapę: kliknij na zielony przycisk z czarnym krzyżykiem, aby powiększyć; na zielony przycisk z myślnikiem, aby pomniejszyć; na zielone strzałki, aby przejść do map sąsiednich.


METAR-TAF: